sensor_id;sensor_type;location;lat;lon;timestamp;pressure;altitude;pressure_sealevel;temperature;humidity
4167;BME280;2097;51.104;7.150;2023-03-26T00:01:09;98054.22;;;7.84;100.00
4167;BME280;2097;51.104;7.150;2023-03-26T00:03:40;98057.56;;;7.86;100.00
4167;BME280;2097;51.104;7.150;2023-03-26T00:06:11;98050.72;;;7.85;100.00
4167;BME280;2097;51.104;7.150;2023-03-26T00:08:40;98054.22;;;7.84;100.00
4167;BME280;2097;51.104;7.150;2023-03-26T00:11:10;98052.69;;;7.81;100.00
4167;BME280;2097;51.104;7.150;2023-03-26T00:13:37;98025.31;;;7.63;100.00
4167;BME280;2097;51.104;7.150;2023-03-26T00:16:05;98051.94;;;7.79;100.00
4167;BME280;2097;51.104;7.150;2023-03-26T00:18:32;98055.25;;;7.81;100.00
4167;BME280;2097;51.104;7.150;2023-03-26T00:21:04;98059.50;;;7.82;100.00
4167;BME280;2097;51.104;7.150;2023-03-26T00:23:31;98062.78;;;7.84;100.00
4167;BME280;2097;51.104;7.150;2023-03-26T00:25:59;98063.66;;;7.85;100.00
4167;BME280;2097;51.104;7.150;2023-03-26T00:28:27;98007.50;;;7.45;100.00
4167;BME280;2097;51.104;7.150;2023-03-26T00:30:57;98060.97;;;7.86;100.00
4167;BME280;2097;51.104;7.150;2023-03-26T00:33:24;98060.88;;;7.88;100.00
4167;BME280;2097;51.104;7.150;2023-03-26T00:35:51;98053.94;;;7.88;100.00
4167;BME280;2097;51.104;7.150;2023-03-26T00:38:20;98048.72;;;7.89;100.00
4167;BME280;2097;51.104;7.150;2023-03-26T00:40:48;98048.72;;;7.89;100.00
4167;BME280;2097;51.104;7.150;2023-03-26T00:43:15;98047.06;;;7.88;100.00
4167;BME280;2097;51.104;7.150;2023-03-26T00:45:45;98047.88;;;7.89;100.00
4167;BME280;2097;51.104;7.150;2023-03-26T00:48:12;98039.31;;;7.88;100.00
4167;BME280;2097;51.104;7.150;2023-03-26T00:50:40;98005.25;;;7.68;100.00
4167;BME280;2097;51.104;7.150;2023-03-26T00:53:07;98036.78;;;7.87;100.00
4167;BME280;2097;51.104;7.150;2023-03-26T00:55:38;98038.56;;;7.87;100.00
4167;BME280;2097;51.104;7.150;2023-03-26T00:58:05;98039.38;;;7.87;100.00
4167;BME280;2097;51.104;7.150;2023-03-26T01:00:36;98023.69;;;7.76;100.00
4167;BME280;2097;51.104;7.150;2023-03-26T01:03:05;98030.88;;;7.85;100.00
4167;BME280;2097;51.104;7.150;2023-03-26T01:05:45;98007.28;;;7.77;100.00
4167;BME280;2097;51.104;7.150;2023-03-26T01:08:26;98031.72;;;7.86;100.00
4167;BME280;2097;51.104;7.150;2023-03-26T01:10:57;97998.88;;;7.74;100.00
4167;BME280;2097;51.104;7.150;2023-03-26T01:13:34;98001.09;;;7.80;100.00
4167;BME280;2097;51.104;7.150;2023-03-26T01:16:02;98012.72;;;7.87;100.00
4167;BME280;2097;51.104;7.150;2023-03-26T01:18:36;98000.63;;;7.87;100.00
4167;BME280;2097;51.104;7.150;2023-03-26T01:21:06;97990.88;;;7.78;100.00
4167;BME280;2097;51.104;7.150;2023-03-26T01:23:42;97998.91;;;7.88;100.00
4167;BME280;2097;51.104;7.150;2023-03-26T01:26:19;97991.88;;;7.89;100.00
4167;BME280;2097;51.104;7.150;2023-03-26T01:28:54;97991.78;;;7.91;100.00
4167;BME280;2097;51.104;7.150;2023-03-26T01:31:27;97990.03;;;7.91;100.00
4167;BME280;2097;51.104;7.150;2023-03-26T01:34:00;97975.47;;;7.90;100.00
4167;BME280;2097;51.104;7.150;2023-03-26T01:36:33;97974.06;;;7.85;100.00
4167;BME280;2097;51.104;7.150;2023-03-26T01:39:07;97983.88;;;7.80;100.00
4167;BME280;2097;51.104;7.150;2023-03-26T01:41:42;97979.13;;;7.73;100.00
4167;BME280;2097;51.104;7.150;2023-03-26T01:44:16;97972.31;;;7.72;100.00
4167;BME280;2097;51.104;7.150;2023-03-26T01:46:46;97968.91;;;7.71;100.00
4167;BME280;2097;51.104;7.150;2023-03-26T01:49:14;97948.06;;;7.60;100.00
4167;BME280;2097;51.104;7.150;2023-03-26T01:51:41;97965.22;;;7.75;100.00
4167;BME280;2097;51.104;7.150;2023-03-26T01:54:12;97955.81;;;7.74;100.00
4167;BME280;2097;51.104;7.150;2023-03-26T01:56:49;97954.97;;;7.74;100.00
4167;BME280;2097;51.104;7.150;2023-03-26T01:59:41;97954.16;;;7.73;100.00
4167;BME280;2097;51.104;7.150;2023-03-26T02:02:13;97944.81;;;7.71;100.00
4167;BME280;2097;51.104;7.150;2023-03-26T02:04:45;97946.66;;;7.69;100.00
4167;BME280;2097;51.104;7.150;2023-03-26T02:07:21;97943.28;;;7.68;100.00
4167;BME280;2097;51.104;7.150;2023-03-26T02:09:53;97935.53;;;7.68;100.00
4167;BME280;2097;51.104;7.150;2023-03-26T02:12:24;97938.91;;;7.69;100.00
4167;BME280;2097;51.104;7.150;2023-03-26T02:14:52;97932.94;;;7.68;100.00
4167;BME280;2097;51.104;7.150;2023-03-26T02:17:19;97935.59;;;7.67;100.00
4167;BME280;2097;51.104;7.150;2023-03-26T02:19:49;97930.25;;;7.70;100.00
4167;BME280;2097;51.104;7.150;2023-03-26T02:22:16;97909.50;;;7.57;100.00
4167;BME280;2097;51.104;7.150;2023-03-26T02:24:43;97918.38;;;7.67;100.00
4167;BME280;2097;51.104;7.150;2023-03-26T02:27:10;97923.81;;;7.63;100.00
4167;BME280;2097;51.104;7.150;2023-03-26T02:29:39;97898.06;;;7.47;100.00
4167;BME280;2097;51.104;7.150;2023-03-26T02:32:08;97915.13;;;7.50;100.00
4167;BME280;2097;51.104;7.150;2023-03-26T02:34:37;97910.50;;;7.41;100.00
4167;BME280;2097;51.104;7.150;2023-03-26T02:37:05;97902.56;;;7.30;100.00
4167;BME280;2097;51.104;7.150;2023-03-26T02:39:32;97905.88;;;7.18;100.00
4167;BME280;2097;51.104;7.150;2023-03-26T02:41:59;97892.03;;;7.05;100.00
4167;BME280;2097;51.104;7.150;2023-03-26T02:44:26;97892.72;;;6.93;100.00
4167;BME280;2097;51.104;7.150;2023-03-26T02:46:54;97886.63;;;6.80;100.00
4167;BME280;2097;51.104;7.150;2023-03-26T02:49:22;97888.81;;;6.72;100.00
4167;BME280;2097;51.104;7.150;2023-03-26T02:51:48;97888.41;;;6.64;100.00
4167;BME280;2097;51.104;7.150;2023-03-26T02:54:15;97880.28;;;6.56;100.00
4167;BME280;2097;51.104;7.150;2023-03-26T02:56:42;97875.47;;;6.50;100.00
4167;BME280;2097;51.104;7.150;2023-03-26T02:59:09;97868.09;;;6.44;100.00
4167;BME280;2097;51.104;7.150;2023-03-26T03:01:36;97859.84;;;6.38;100.00
4167;BME280;2097;51.104;7.150;2023-03-26T03:04:08;97861.72;;;6.36;100.00
4167;BME280;2097;51.104;7.150;2023-03-26T03:06:36;97864.28;;;6.36;100.00
4167;BME280;2097;51.104;7.150;2023-03-26T03:09:05;97859.03;;;6.37;100.00
4167;BME280;2097;51.104;7.150;2023-03-26T03:11:33;97858.13;;;6.38;100.00
4167;BME280;2097;51.104;7.150;2023-03-26T03:14:00;97854.63;;;6.39;100.00
4167;BME280;2097;51.104;7.150;2023-03-26T03:16:27;97846.97;;;6.38;100.00
4167;BME280;2097;51.104;7.150;2023-03-26T03:18:54;97844.50;;;6.36;100.00
4167;BME280;2097;51.104;7.150;2023-03-26T03:21:25;97841.91;;;6.36;100.00
4167;BME280;2097;51.104;7.150;2023-03-26T03:23:52;97841.00;;;6.37;100.00
4167;BME280;2097;51.104;7.150;2023-03-26T03:26:21;97846.91;;;6.39;100.00
4167;BME280;2097;51.104;7.150;2023-03-26T03:28:52;97842.34;;;6.44;100.00
4167;BME280;2097;51.104;7.150;2023-03-26T03:31:19;97840.41;;;6.48;100.00
4167;BME280;2097;51.104;7.150;2023-03-26T03:33:47;97837.66;;;6.51;100.00
4167;BME280;2097;51.104;7.150;2023-03-26T03:36:17;97818.63;;;6.53;100.00
4167;BME280;2097;51.104;7.150;2023-03-26T03:38:48;97801.75;;;6.48;100.00
4167;BME280;2097;51.104;7.150;2023-03-26T03:41:15;97819.91;;;6.60;100.00
4167;BME280;2097;51.104;7.150;2023-03-26T03:43:43;97812.75;;;6.65;100.00
4167;BME280;2097;51.104;7.150;2023-03-26T03:46:09;97808.25;;;6.69;100.00
4167;BME280;2097;51.104;7.150;2023-03-26T03:48:36;97810.56;;;6.73;100.00
4167;BME280;2097;51.104;7.150;2023-03-26T03:51:04;97812.03;;;6.77;100.00
4167;BME280;2097;51.104;7.150;2023-03-26T03:53:31;97805.13;;;6.77;100.00
4167;BME280;2097;51.104;7.150;2023-03-26T03:56:03;97800.72;;;6.79;100.00
4167;BME280;2097;51.104;7.150;2023-03-26T03:58:35;97796.28;;;6.81;100.00
4167;BME280;2097;51.104;7.150;2023-03-26T04:01:01;97806.59;;;6.81;100.00
4167;BME280;2097;51.104;7.150;2023-03-26T04:03:29;97795.38;;;6.82;100.00
4167;BME280;2097;51.104;7.150;2023-03-26T04:05:56;97786.66;;;6.85;100.00
4167;BME280;2097;51.104;7.150;2023-03-26T04:08:23;97787.38;;;6.87;100.00
4167;BME280;2097;51.104;7.150;2023-03-26T04:10:50;97778.72;;;6.88;100.00
4167;BME280;2097;51.104;7.150;2023-03-26T04:13:18;97776.16;;;6.88;100.00
4167;BME280;2097;51.104;7.150;2023-03-26T04:15:45;97775.25;;;6.89;100.00
4167;BME280;2097;51.104;7.150;2023-03-26T04:18:12;97732.28;;;6.60;100.00
4167;BME280;2097;51.104;7.150;2023-03-26T04:20:40;97768.41;;;6.88;100.00
4167;BME280;2097;51.104;7.150;2023-03-26T04:23:10;97763.34;;;6.86;100.00
4167;BME280;2097;51.104;7.150;2023-03-26T04:25:39;97725.84;;;6.67;100.00
4167;BME280;2097;51.104;7.150;2023-03-26T04:28:07;97754.59;;;6.89;100.00
4167;BME280;2097;51.104;7.150;2023-03-26T04:30:37;97746.88;;;6.89;100.00
4167;BME280;2097;51.104;7.150;2023-03-26T04:33:10;97745.94;;;6.90;100.00
4167;BME280;2097;51.104;7.150;2023-03-26T04:35:40;97740.88;;;6.88;100.00
4167;BME280;2097;51.104;7.150;2023-03-26T04:38:10;97738.28;;;6.88;100.00
4167;BME280;2097;51.104;7.150;2023-03-26T04:40:37;97735.72;;;6.88;100.00
4167;BME280;2097;51.104;7.150;2023-03-26T04:43:04;97729.75;;;6.88;100.00
4167;BME280;2097;51.104;7.150;2023-03-26T04:45:31;97727.25;;;6.86;100.00
4167;BME280;2097;51.104;7.150;2023-03-26T04:47:59;97728.09;;;6.87;100.00
4167;BME280;2097;51.104;7.150;2023-03-26T04:50:26;97714.53;;;6.83;100.00
4167;BME280;2097;51.104;7.150;2023-03-26T04:52:54;97685.72;;;6.63;100.00
4167;BME280;2097;51.104;7.150;2023-03-26T04:55:24;97706.97;;;6.80;100.00
4167;BME280;2097;51.104;7.150;2023-03-26T04:57:56;97701.09;;;6.78;100.00
4167;BME280;2097;51.104;7.150;2023-03-26T05:00:27;97696.03;;;6.77;100.00
4167;BME280;2097;51.104;7.150;2023-03-26T05:02:54;97689.22;;;6.76;100.00
4167;BME280;2097;51.104;7.150;2023-03-26T05:05:24;97696.94;;;6.76;100.00
4167;BME280;2097;51.104;7.150;2023-03-26T05:07:51;97689.22;;;6.76;100.00
4167;BME280;2097;51.104;7.150;2023-03-26T05:10:18;97691.78;;;6.76;100.00
4167;BME280;2097;51.104;7.150;2023-03-26T05:12:46;97688.38;;;6.75;100.00
4167;BME280;2097;51.104;7.150;2023-03-26T05:15:14;97691.06;;;6.74;100.00
4167;BME280;2097;51.104;7.150;2023-03-26T05:17:41;97662.50;;;6.63;100.00
4167;BME280;2097;51.104;7.150;2023-03-26T05:20:15;97681.66;;;6.73;100.00
4167;BME280;2097;51.104;7.150;2023-03-26T05:22:47;97694.56;;;6.73;100.00
4167;BME280;2097;51.104;7.150;2023-03-26T05:25:14;97679.09;;;6.73;100.00
4167;BME280;2097;51.104;7.150;2023-03-26T05:27:41;97673.13;;;6.73;100.00
4167;BME280;2097;51.104;7.150;2023-03-26T05:30:09;97672.09;;;6.75;100.00
4167;BME280;2097;51.104;7.150;2023-03-26T05:32:38;97661.78;;;6.75;100.00
4167;BME280;2097;51.104;7.150;2023-03-26T05:35:06;97657.53;;;6.74;100.00
4167;BME280;2097;51.104;7.150;2023-03-26T05:37:33;97656.63;;;6.75;100.00
4167;BME280;2097;51.104;7.150;2023-03-26T05:40:05;97648.78;;;6.76;100.00
4167;BME280;2097;51.104;7.150;2023-03-26T05:42:36;97653.88;;;6.78;100.00
4167;BME280;2097;51.104;7.150;2023-03-26T05:45:03;97646.13;;;6.78;100.00
4167;BME280;2097;51.104;7.150;2023-03-26T05:47:30;97646.94;;;6.78;100.00
4167;BME280;2097;51.104;7.150;2023-03-26T05:49:57;97646.13;;;6.78;100.00
4167;BME280;2097;51.104;7.150;2023-03-26T05:52:24;97549.81;;;6.25;100.00
4167;BME280;2097;51.104;7.150;2023-03-26T05:54:51;97634.72;;;6.82;100.00
4167;BME280;2097;51.104;7.150;2023-03-26T05:57:19;97630.38;;;6.82;100.00
4167;BME280;2097;51.104;7.150;2023-03-26T05:59:46;97630.28;;;6.84;100.00
4167;BME280;2097;51.104;7.150;2023-03-26T06:02:13;97618.22;;;6.84;100.00
4167;BME280;2097;51.104;7.150;2023-03-26T06:04:40;97628.44;;;6.86;100.00
4167;BME280;2097;51.104;7.150;2023-03-26T06:07:10;97612.06;;;6.87;100.00
4167;BME280;2097;51.104;7.150;2023-03-26T06:09:37;97573.41;;;6.59;100.00
4167;BME280;2097;51.104;7.150;2023-03-26T06:12:06;97615.44;;;6.87;100.00
4167;BME280;2097;51.104;7.150;2023-03-26T06:14:35;97616.28;;;6.88;100.00
4167;BME280;2097;51.104;7.150;2023-03-26T06:17:02;97608.56;;;6.88;100.00
4167;BME280;2097;51.104;7.150;2023-03-26T06:19:29;97605.13;;;6.87;100.00
4167;BME280;2097;51.104;7.150;2023-03-26T06:21:56;97600.81;;;6.88;100.00
4167;BME280;2097;51.104;7.150;2023-03-26T06:24:22;97601.56;;;6.90;100.00
4167;BME280;2097;51.104;7.150;2023-03-26T06:26:49;97603.91;;;6.93;100.00
4167;BME280;2097;51.104;7.150;2023-03-26T06:29:17;97606.41;;;6.94;100.00
4167;BME280;2097;51.104;7.150;2023-03-26T06:31:45;97606.41;;;6.94;100.00
4167;BME280;2097;51.104;7.150;2023-03-26T06:34:12;97599.59;;;6.93;100.00
4167;BME280;2097;51.104;7.150;2023-03-26T06:36:39;97597.09;;;6.92;100.00
4167;BME280;2097;51.104;7.150;2023-03-26T06:39:06;97592.69;;;6.94;100.00
4167;BME280;2097;51.104;7.150;2023-03-26T06:41:33;97586.59;;;6.95;100.00
4167;BME280;2097;51.104;7.150;2023-03-26T06:44:00;97587.53;;;6.94;100.00
4167;BME280;2097;51.104;7.150;2023-03-26T06:46:26;97584.88;;;6.95;100.00
4167;BME280;2097;51.104;7.150;2023-03-26T06:48:55;97578.69;;;6.98;100.00
4167;BME280;2097;51.104;7.150;2023-03-26T06:51:22;97579.41;;;7.00;100.00
4167;BME280;2097;51.104;7.150;2023-03-26T06:53:49;97576.75;;;7.01;100.00
4167;BME280;2097;51.104;7.150;2023-03-26T06:56:15;97575.72;;;7.04;100.00
4167;BME280;2097;51.104;7.150;2023-03-26T06:58:42;97567.91;;;7.05;100.00
4167;BME280;2097;51.104;7.150;2023-03-26T07:01:09;97564.47;;;7.05;100.00
4167;BME280;2097;51.104;7.150;2023-03-26T07:03:36;97576.25;;;7.09;100.00
4167;BME280;2097;51.104;7.150;2023-03-26T07:06:05;97559.97;;;7.08;100.00
4167;BME280;2097;51.104;7.150;2023-03-26T07:08:32;97557.28;;;7.10;100.00
4167;BME280;2097;51.104;7.150;2023-03-26T07:10:59;97534.66;;;7.01;100.00
4167;BME280;2097;51.104;7.150;2023-03-26T07:13:26;97556.34;;;7.11;100.00
4167;BME280;2097;51.104;7.150;2023-03-26T07:15:52;97544.28;;;7.11;100.00
4167;BME280;2097;51.104;7.150;2023-03-26T07:18:19;97549.25;;;7.14;100.00
4167;BME280;2097;51.104;7.150;2023-03-26T07:20:46;97543.16;;;7.15;100.00
4167;BME280;2097;51.104;7.150;2023-03-26T07:23:15;97541.22;;;7.19;100.00
4167;BME280;2097;51.104;7.150;2023-03-26T07:25:45;97538.44;;;7.22;100.00
4167;BME280;2097;51.104;7.150;2023-03-26T07:28:21;97538.25;;;7.25;100.00
4167;BME280;2097;51.104;7.150;2023-03-26T07:30:58;97532.97;;;7.26;100.00
4167;BME280;2097;51.104;7.150;2023-03-26T07:33:32;97533.72;;;7.28;100.00
4167;BME280;2097;51.104;7.150;2023-03-26T07:36:12;97519.88;;;7.29;100.00
4167;BME280;2097;51.104;7.150;2023-03-26T07:38:57;97519.78;;;7.31;100.00
4167;BME280;2097;51.104;7.150;2023-03-26T07:41:34;97519.56;;;7.34;100.00
4167;BME280;2097;51.104;7.150;2023-03-26T07:44:20;97514.22;;;7.37;100.00
4167;BME280;2097;51.104;7.150;2023-03-26T07:46:52;97503.69;;;7.40;100.00
4167;BME280;2097;51.104;7.150;2023-03-26T07:49:20;97507.94;;;7.41;100.00
4167;BME280;2097;51.104;7.150;2023-03-26T07:51:47;97360.69;;;6.55;100.00
4167;BME280;2097;51.104;7.150;2023-03-26T07:54:16;97500.91;;;7.43;100.00
4167;BME280;2097;51.104;7.150;2023-03-26T07:56:49;97502.56;;;7.44;100.00
4167;BME280;2097;51.104;7.150;2023-03-26T07:59:22;97499.69;;;7.48;100.00
4167;BME280;2097;51.104;7.150;2023-03-26T08:01:59;97505.47;;;7.52;100.00
4167;BME280;2097;51.104;7.150;2023-03-26T08:04:41;97492.84;;;7.47;100.00
4167;BME280;2097;51.104;7.150;2023-03-26T08:07:19;97462.28;;;7.29;100.00
4167;BME280;2097;51.104;7.150;2023-03-26T08:10:01;97491.00;;;7.49;100.00
4167;BME280;2097;51.104;7.150;2023-03-26T08:12:36;97499.59;;;7.50;100.00
4167;BME280;2097;51.104;7.150;2023-03-26T08:15:11;97495.69;;;7.44;100.00
4167;BME280;2097;51.104;7.150;2023-03-26T08:17:43;97508.78;;;7.41;100.00
4167;BME280;2097;51.104;7.150;2023-03-26T08:20:20;97493.28;;;7.41;100.00
4167;BME280;2097;51.104;7.150;2023-03-26T08:22:54;97471.28;;;7.36;100.00
4167;BME280;2097;51.104;7.150;2023-03-26T08:25:27;97460.53;;;7.29;100.00
4167;BME280;2097;51.104;7.150;2023-03-26T08:28:07;97480.78;;;7.48;100.00
4167;BME280;2097;51.104;7.150;2023-03-26T08:30:40;97482.25;;;7.52;100.00
4167;BME280;2097;51.104;7.150;2023-03-26T08:33:11;97485.75;;;7.51;100.00
4167;BME280;2097;51.104;7.150;2023-03-26T08:35:41;97390.63;;;6.95;100.00
4167;BME280;2097;51.104;7.150;2023-03-26T08:38:08;97485.03;;;7.49;100.00
4167;BME280;2097;51.104;7.150;2023-03-26T08:49:55;97475.53;;;7.49;100.00
4167;BME280;2097;51.104;7.150;2023-03-26T08:52:45;97471.19;;;7.50;100.00
4167;BME280;2097;51.104;7.150;2023-03-26T08:55:35;97475.63;;;7.48;100.00
4167;BME280;2097;51.104;7.150;2023-03-26T08:58:46;97473.19;;;7.46;100.00
4167;BME280;2097;51.104;7.150;2023-03-26T09:04:52;97466.75;;;7.27;100.00
4167;BME280;2097;51.104;7.150;2023-03-26T09:11:11;97471.91;;;7.27;100.00
4167;BME280;2097;51.104;7.150;2023-03-26T09:14:22;97461.66;;;7.25;100.00
4167;BME280;2097;51.104;7.150;2023-03-26T09:20:23;97314.41;;;6.27;100.00
4167;BME280;2097;51.104;7.150;2023-03-26T09:23:16;97454.50;;;7.04;100.00
4167;BME280;2097;51.104;7.150;2023-03-26T09:26:03;97448.09;;;6.97;100.00
4167;BME280;2097;51.104;7.150;2023-03-26T09:29:10;97461.47;;;6.89;100.00
4167;BME280;2097;51.104;7.150;2023-03-26T09:35:08;97440.25;;;6.86;100.00
4167;BME280;2097;51.104;7.150;2023-03-26T09:37:45;97445.06;;;6.78;100.00
4167;BME280;2097;51.104;7.150;2023-03-26T09:40:18;97440.09;;;6.75;100.00
4167;BME280;2097;51.104;7.150;2023-03-26T09:42:52;97441.75;;;6.76;100.00
4167;BME280;2097;51.104;7.150;2023-03-26T09:45:45;97435.91;;;6.86;100.00
4167;BME280;2097;51.104;7.150;2023-03-26T09:51:43;97437.56;;;7.00;100.00
4167;BME280;2097;51.104;7.150;2023-03-26T09:54:27;97433.16;;;7.02;100.00
4167;BME280;2097;51.104;7.150;2023-03-26T09:57:03;97426.06;;;7.05;100.00
4167;BME280;2097;51.104;7.150;2023-03-26T09:59:53;97426.56;;;7.10;100.00
4167;BME280;2097;51.104;7.150;2023-03-26T10:02:44;97419.47;;;7.14;100.00
4167;BME280;2097;51.104;7.150;2023-03-26T10:05:30;97416.81;;;7.28;100.00
4167;BME280;2097;51.104;7.150;2023-03-26T10:08:24;97417.28;;;7.33;100.00
4167;BME280;2097;51.104;7.150;2023-03-26T10:10:56;97415.03;;;7.41;100.00
4167;BME280;2097;51.104;7.150;2023-03-26T10:13:32;97406.97;;;7.33;100.00
4167;BME280;2097;51.104;7.150;2023-03-26T10:16:14;97406.78;;;7.36;100.00
4167;BME280;2097;51.104;7.150;2023-03-26T10:18:55;97405.84;;;7.37;100.00
4167;BME280;2097;51.104;7.150;2023-03-26T10:21:33;97226.84;;;6.27;100.00
4167;BME280;2097;51.104;7.150;2023-03-26T10:24:19;97403.47;;;7.34;100.00
4167;BME280;2097;51.104;7.150;2023-03-26T10:32:42;97382.94;;;7.32;100.00
4167;BME280;2097;51.104;7.150;2023-03-26T10:35:24;97377.47;;;7.37;100.00
4167;BME280;2097;51.104;7.150;2023-03-26T10:38:07;97366.00;;;7.41;100.00
4167;BME280;2097;51.104;7.150;2023-03-26T10:40:43;97371.56;;;7.47;100.00
4167;BME280;2097;51.104;7.150;2023-03-26T10:46:59;97354.44;;;7.59;100.00
4167;BME280;2097;51.104;7.150;2023-03-26T10:49:38;97353.50;;;7.60;100.00
4167;BME280;2097;51.104;7.150;2023-03-26T10:52:10;97350.41;;;7.55;100.00
4167;BME280;2097;51.104;7.150;2023-03-26T10:54:51;97349.28;;;7.59;100.00
4167;BME280;2097;51.104;7.150;2023-03-26T10:57:27;97338.84;;;7.48;100.00
4167;BME280;2097;51.104;7.150;2023-03-26T11:00:04;97350.22;;;7.58;100.00
4167;BME280;2097;51.104;7.150;2023-03-26T11:02:37;97254.69;;;6.97;100.00
4167;BME280;2097;51.104;7.150;2023-03-26T11:05:19;97345.78;;;7.60;100.00
4167;BME280;2097;51.104;7.150;2023-03-26T11:07:55;97345.97;;;7.57;100.00
4167;BME280;2097;51.104;7.150;2023-03-26T11:10:35;97336.78;;;7.53;100.00
4167;BME280;2097;51.104;7.150;2023-03-26T11:13:16;97343.81;;;7.51;100.00
4167;BME280;2097;51.104;7.150;2023-03-26T11:15:47;97338.66;;;7.51;100.00
4167;BME280;2097;51.104;7.150;2023-03-26T11:18:22;97315.13;;;7.43;100.00
4167;BME280;2097;51.104;7.150;2023-03-26T11:20:55;97329.34;;;7.48;100.00
4167;BME280;2097;51.104;7.150;2023-03-26T11:23:33;97329.59;;;7.45;100.00
4167;BME280;2097;51.104;7.150;2023-03-26T11:26:06;97308.66;;;7.25;100.00
4167;BME280;2097;51.104;7.150;2023-03-26T11:28:50;97327.50;;;7.38;100.00
4167;BME280;2097;51.104;7.150;2023-03-26T11:31:28;97321.34;;;7.40;100.00
4167;BME280;2097;51.104;7.150;2023-03-26T11:34:12;97321.22;;;7.42;100.00
4167;BME280;2097;51.104;7.150;2023-03-26T11:36:43;97317.38;;;7.47;100.00
4167;BME280;2097;51.104;7.150;2023-03-26T11:39:20;97312.63;;;7.54;100.00
4167;BME280;2097;51.104;7.150;2023-03-26T11:41:51;97317.16;;;7.63;100.00
4167;BME280;2097;51.104;7.150;2023-03-26T11:44:23;97310.63;;;7.70;100.00
4167;BME280;2097;51.104;7.150;2023-03-26T11:46:55;97306.81;;;7.75;100.00
4167;BME280;2097;51.104;7.150;2023-03-26T11:49:24;97305.75;;;7.78;100.00
4167;BME280;2097;51.104;7.150;2023-03-26T11:51:51;97300.38;;;7.81;100.00
4167;BME280;2097;51.104;7.150;2023-03-26T11:54:20;97307.41;;;7.79;100.00
4167;BME280;2097;51.104;7.150;2023-03-26T11:56:49;97274.22;;;7.62;100.00
4167;BME280;2097;51.104;7.150;2023-03-26T11:59:21;97301.81;;;7.85;100.00
4167;BME280;2097;51.104;7.150;2023-03-26T12:01:53;97306.75;;;7.88;100.00
4167;BME280;2097;51.104;7.150;2023-03-26T12:04:26;97295.81;;;7.84;100.00
4167;BME280;2097;51.104;7.150;2023-03-26T12:06:56;97303.47;;;7.86;100.00
4167;BME280;2097;51.104;7.150;2023-03-26T12:09:25;97278.06;;;7.80;100.00
4167;BME280;2097;51.104;7.150;2023-03-26T12:11:57;97303.03;;;7.91;100.00
4167;BME280;2097;51.104;7.150;2023-03-26T12:14:27;97297.53;;;7.96;100.00
4167;BME280;2097;51.104;7.150;2023-03-26T12:17:00;97305.41;;;7.94;100.00
4167;BME280;2097;51.104;7.150;2023-03-26T12:19:35;97291.66;;;7.94;100.00
4167;BME280;2097;51.104;7.150;2023-03-26T12:22:03;97255.97;;;7.76;100.00
4167;BME280;2097;51.104;7.150;2023-03-26T12:24:34;97296.03;;;8.04;100.00
4167;BME280;2097;51.104;7.150;2023-03-26T12:27:19;97293.03;;;8.10;100.00
4167;BME280;2097;51.104;7.150;2023-03-26T12:29:49;97290.03;;;8.16;100.00
4167;BME280;2097;51.104;7.150;2023-03-26T12:32:16;97291.75;;;8.28;100.00
4167;BME280;2097;51.104;7.150;2023-03-26T12:34:43;97200.59;;;7.80;100.00
4167;BME280;2097;51.104;7.150;2023-03-26T12:37:32;97299.47;;;8.52;100.00
4167;BME280;2097;51.104;7.150;2023-03-26T12:40:07;97301.50;;;8.59;100.00
4167;BME280;2097;51.104;7.150;2023-03-26T12:42:39;97300.81;;;8.68;100.00
4167;BME280;2097;51.104;7.150;2023-03-26T12:45:12;97294.47;;;8.72;100.00
4167;BME280;2097;51.104;7.150;2023-03-26T12:47:39;97298.31;;;8.67;100.00
4167;BME280;2097;51.104;7.150;2023-03-26T12:50:11;97297.06;;;8.72;100.00
4167;BME280;2097;51.104;7.150;2023-03-26T12:52:57;97294.03;;;8.89;100.00
4167;BME280;2097;51.104;7.150;2023-03-26T12:55:40;97298.16;;;9.02;100.00
4167;BME280;2097;51.104;7.150;2023-03-26T12:58:24;97306.91;;;9.23;100.00
4167;BME280;2097;51.104;7.150;2023-03-26T13:00:57;97303.03;;;9.40;100.00
4167;BME280;2097;51.104;7.150;2023-03-26T13:03:38;97301.38;;;9.50;100.00
4167;BME280;2097;51.104;7.150;2023-03-26T13:06:23;97303.00;;;9.51;100.00
4167;BME280;2097;51.104;7.150;2023-03-26T13:09:06;97305.03;;;9.58;100.00
4167;BME280;2097;51.104;7.150;2023-03-26T13:11:45;97311.03;;;9.70;100.00
4167;BME280;2097;51.104;7.150;2023-03-26T13:14:32;97307.47;;;9.82;100.00
4167;BME280;2097;51.104;7.150;2023-03-26T13:17:09;97314.19;;;9.84;100.00
4167;BME280;2097;51.104;7.150;2023-03-26T13:19:44;97306.28;;;9.86;100.00
4167;BME280;2097;51.104;7.150;2023-03-26T13:22:20;97319.91;;;9.99;100.00
4167;BME280;2097;51.104;7.150;2023-03-26T13:24:58;97312.63;;;10.15;100.00
4167;BME280;2097;51.104;7.150;2023-03-26T13:27:41;97313.91;;;10.20;100.00
4167;BME280;2097;51.104;7.150;2023-03-26T13:30:24;97317.34;;;9.99;100.00
4167;BME280;2097;51.104;7.150;2023-03-26T13:33:10;97318.31;;;9.76;100.00
4167;BME280;2097;51.104;7.150;2023-03-26T13:35:47;97309.94;;;9.72;100.00
4167;BME280;2097;51.104;7.150;2023-03-26T13:38:21;97317.47;;;9.75;100.00
4167;BME280;2097;51.104;7.150;2023-03-26T13:40:57;97313.84;;;9.67;100.00
4167;BME280;2097;51.104;7.150;2023-03-26T13:43:44;97316.53;;;9.65;100.00
4167;BME280;2097;51.104;7.150;2023-03-26T13:46:22;97319.72;;;9.58;100.00
4167;BME280;2097;51.104;7.150;2023-03-26T13:48:56;97322.56;;;9.44;100.00
4167;BME280;2097;51.104;7.150;2023-03-26T13:51:27;97306.78;;;9.25;100.00
4167;BME280;2097;51.104;7.150;2023-03-26T13:53:59;97309.28;;;9.26;100.00
4167;BME280;2097;51.104;7.150;2023-03-26T13:56:34;97326.19;;;9.30;100.00
4167;BME280;2097;51.104;7.150;2023-03-26T13:59:07;97325.97;;;9.33;100.00
4167;BME280;2097;51.104;7.150;2023-03-26T14:01:41;97331.03;;;9.35;100.00
4167;BME280;2097;51.104;7.150;2023-03-26T14:04:16;97329.16;;;9.37;100.00
4167;BME280;2097;51.104;7.150;2023-03-26T14:06:48;97329.63;;;9.42;100.00
4167;BME280;2097;51.104;7.150;2023-03-26T14:09:26;97317.25;;;9.34;100.00
4167;BME280;2097;51.104;7.150;2023-03-26T14:12:09;97330.69;;;9.39;100.00
4167;BME280;2097;51.104;7.150;2023-03-26T14:14:45;97334.09;;;9.29;100.00
4167;BME280;2097;51.104;7.150;2023-03-26T14:17:16;97337.25;;;9.21;100.00
4167;BME280;2097;51.104;7.150;2023-03-26T14:20:12;97337.34;;;9.20;100.00
4167;BME280;2097;51.104;7.150;2023-03-26T14:22:54;97343.22;;;9.11;100.00
4167;BME280;2097;51.104;7.150;2023-03-26T14:25:31;97344.75;;;8.92;100.00
4167;BME280;2097;51.104;7.150;2023-03-26T14:28:23;97343.63;;;8.72;100.00